GFERG VNLT-VNLK
Flight info
| Callsign | GFERG |
|---|---|
| Flight time | 0h 45m |
| Altitude | 14000 |
| Route | DCT |
| Aircraft | EC45/L-SDE3/L |
Departure
| Time | 2025-12-10 15:18 |
|---|---|
| Airport | Langtang Airport (VNLT) |
Arrival
| Time | 2025-12-10 16:03 |
|---|---|
| Airport | Tenzing-Hillary Airport (VNLK) |
| Time | Latitude | Longitude | Altitude | Speed | Heading |
|---|---|---|---|---|---|
| 2025-12-10 15:17 | 28.08580 | 85.66650 | 18153 ft | 123 kts | 205° |
| 2025-12-10 15:17 | 28.07776 | 85.66320 | 18154 ft | 123 kts | 206° |
| 2025-12-10 15:18 | 28.06172 | 85.65631 | 18075 ft | 123 kts | 207° |
| 2025-12-10 15:18 | 28.04541 | 85.65033 | 17708 ft | 124 kts | 202° |
| 2025-12-10 15:19 | 28.02882 | 85.64521 | 17344 ft | 123 kts | 201° |
| 2025-12-10 15:19 | 28.01211 | 85.64069 | 16990 ft | 123 kts | 199° |
| 2025-12-10 15:20 | 27.99535 | 85.63672 | 16960 ft | 121 kts | 199° |
| 2025-12-10 15:21 | 27.97102 | 85.62891 | 16219 ft | 121 kts | 203° |
| 2025-12-10 15:21 | 27.95512 | 85.62311 | 15727 ft | 119 kts | 203° |
| 2025-12-10 15:21 | 27.94725 | 85.62021 | 15489 ft | 119 kts | 203° |
| 2025-12-10 15:22 | 27.93162 | 85.61445 | 15005 ft | 117 kts | 202° |
| 2025-12-10 15:22 | 27.91607 | 85.60873 | 14548 ft | 117 kts | 202° |
| 2025-12-10 15:23 | 27.90061 | 85.60303 | 14082 ft | 117 kts | 201° |
| 2025-12-10 15:23 | 27.88488 | 85.60268 | 13566 ft | 119 kts | 153° |
| 2025-12-10 15:24 | 27.87329 | 85.61568 | 13055 ft | 117 kts | 133° |
| 2025-12-10 15:25 | 27.85740 | 85.63640 | 12309 ft | 115 kts | 133° |
| 2025-12-10 15:25 | 27.85215 | 85.64321 | 12063 ft | 115 kts | 133° |
| 2025-12-10 15:25 | 27.84168 | 85.65670 | 11574 ft | 113 kts | 133° |
| 2025-12-10 15:26 | 27.83131 | 85.67005 | 11154 ft | 113 kts | 133° |
| 2025-12-10 15:26 | 27.82109 | 85.68335 | 11047 ft | 113 kts | 132° |
| 2025-12-10 15:27 | 27.81178 | 85.69757 | 11018 ft | 113 kts | 125° |
| 2025-12-10 15:27 | 27.80741 | 85.70490 | 11018 ft | 112 kts | 125° |
| 2025-12-10 15:28 | 27.79388 | 85.72784 | 11010 ft | 123 kts | 124° |
| 2025-12-10 15:29 | 27.77991 | 85.75218 | 10996 ft | 124 kts | 120° |
| 2025-12-10 15:29 | 27.77588 | 85.76075 | 10993 ft | 123 kts | 118° |
| 2025-12-10 15:29 | 27.76797 | 85.77796 | 10993 ft | 124 kts | 118° |
| 2025-12-10 15:30 | 27.76009 | 85.79520 | 10989 ft | 124 kts | 118° |
| 2025-12-10 15:30 | 27.75222 | 85.81246 | 10990 ft | 124 kts | 118° |
| 2025-12-10 15:31 | 27.74436 | 85.82970 | 10990 ft | 123 kts | 119° |
| 2025-12-10 15:31 | 27.73654 | 85.84697 | 10989 ft | 123 kts | 118° |
| 2025-12-10 15:32 | 27.72872 | 85.86424 | 10984 ft | 124 kts | 118° |
| 2025-12-10 15:32 | 27.72481 | 85.87287 | 10986 ft | 123 kts | 119° |
| 2025-12-10 15:33 | 27.71311 | 85.89876 | 10985 ft | 123 kts | 119° |
| 2025-12-10 15:33 | 27.70530 | 85.91599 | 10984 ft | 123 kts | 119° |
| 2025-12-10 15:34 | 27.69749 | 85.93315 | 10984 ft | 123 kts | 119° |
| 2025-12-10 15:34 | 27.68969 | 85.95035 | 10987 ft | 123 kts | 119° |
| 2025-12-10 15:35 | 27.68188 | 85.96752 | 10987 ft | 123 kts | 118° |
| 2025-12-10 15:35 | 27.67409 | 85.98466 | 10984 ft | 123 kts | 118° |
| 2025-12-10 15:36 | 27.66623 | 86.00182 | 10986 ft | 123 kts | 118° |
| 2025-12-10 15:36 | 27.66231 | 86.01038 | 10983 ft | 123 kts | 118° |
| 2025-12-10 15:37 | 27.65059 | 86.03595 | 10979 ft | 123 kts | 119° |
| 2025-12-10 15:37 | 27.64273 | 86.05309 | 10983 ft | 123 kts | 119° |
| 2025-12-10 15:38 | 27.63774 | 86.07141 | 10983 ft | 123 kts | 99° |
| 2025-12-10 15:38 | 27.63486 | 86.09036 | 10982 ft | 123 kts | 103° |
| 2025-12-10 15:39 | 27.63078 | 86.10906 | 10995 ft | 123 kts | 107° |
| 2025-12-10 15:39 | 27.62644 | 86.12769 | 10997 ft | 123 kts | 105° |
| 2025-12-10 15:40 | 27.62209 | 86.14632 | 10999 ft | 123 kts | 106° |
| 2025-12-10 15:40 | 27.61982 | 86.15561 | 10996 ft | 123 kts | 107° |
| 2025-12-10 15:41 | 27.61152 | 86.18277 | 10999 ft | 123 kts | 127° |
| 2025-12-10 15:41 | 27.60118 | 86.19809 | 10997 ft | 123 kts | 128° |
| 2025-12-10 15:42 | 27.59111 | 86.21362 | 10996 ft | 123 kts | 128° |
| 2025-12-10 15:42 | 27.58122 | 86.22934 | 10996 ft | 123 kts | 127° |
| 2025-12-10 15:43 | 27.57136 | 86.24511 | 10996 ft | 123 kts | 127° |
| 2025-12-10 15:43 | 27.56155 | 86.26082 | 10995 ft | 123 kts | 127° |
| 2025-12-10 15:44 | 27.55168 | 86.27658 | 10990 ft | 124 kts | 127° |
| 2025-12-10 15:44 | 27.54670 | 86.28451 | 10996 ft | 124 kts | 127° |
| 2025-12-10 15:45 | 27.52686 | 86.31614 | 10988 ft | 124 kts | 127° |
| 2025-12-10 15:45 | 27.52183 | 86.32402 | 10991 ft | 124 kts | 130° |
| 2025-12-10 15:46 | 27.50502 | 86.34603 | 10988 ft | 124 kts | 133° |
| 2025-12-10 15:46 | 27.49937 | 86.35332 | 11000 ft | 123 kts | 133° |
| 2025-12-10 15:47 | 27.48807 | 86.36786 | 10990 ft | 124 kts | 133° |
| 2025-12-10 15:47 | 27.47680 | 86.38248 | 10988 ft | 124 kts | 133° |
| 2025-12-10 15:48 | 27.46501 | 86.39653 | 10987 ft | 124 kts | 136° |
| 2025-12-10 15:48 | 27.45993 | 86.40432 | 10985 ft | 124 kts | 119° |
| 2025-12-10 15:49 | 27.44987 | 86.43116 | 11000 ft | 123 kts | 114° |
| 2025-12-10 15:49 | 27.44347 | 86.44918 | 10989 ft | 125 kts | 107° |
| 2025-12-10 15:50 | 27.44510 | 86.46808 | 10998 ft | 124 kts | 62° |
| 2025-12-10 15:50 | 27.45450 | 86.48423 | 11001 ft | 123 kts | 57° |
| 2025-12-10 15:51 | 27.46246 | 86.50127 | 11008 ft | 123 kts | 64° |
| 2025-12-10 15:51 | 27.47002 | 86.51851 | 11001 ft | 123 kts | 64° |
| 2025-12-10 15:52 | 27.47766 | 86.53574 | 11006 ft | 123 kts | 64° |
| 2025-12-10 15:52 | 27.48147 | 86.54435 | 11007 ft | 123 kts | 64° |
| 2025-12-10 15:53 | 27.49287 | 86.57023 | 11002 ft | 123 kts | 63° |
| 2025-12-10 15:53 | 27.50044 | 86.58746 | 11016 ft | 122 kts | 64° |
| 2025-12-10 15:54 | 27.50789 | 86.60465 | 11018 ft | 122 kts | 64° |
| 2025-12-10 15:54 | 27.50863 | 86.62355 | 11010 ft | 124 kts | 85° |
| 2025-12-10 15:55 | 27.51791 | 86.63899 | 11015 ft | 121 kts | 38° |
| 2025-12-10 15:55 | 27.53151 | 86.64997 | 11017 ft | 120 kts | 35° |
| 2025-12-10 15:56 | 27.54658 | 86.65806 | 11035 ft | 120 kts | 23° |
| 2025-12-10 15:56 | 27.55427 | 86.66166 | 11034 ft | 120 kts | 22° |
| 2025-12-10 15:57 | 27.57727 | 86.67220 | 11021 ft | 119 kts | 22° |
| 2025-12-10 15:57 | 27.59126 | 86.67875 | 10989 ft | 107 kts | 23° |
| 2025-12-10 15:58 | 27.60451 | 86.68516 | 10755 ft | 91 kts | 24° |
| 2025-12-10 15:58 | 27.61540 | 86.69050 | 10515 ft | 85 kts | 24° |
| 2025-12-10 15:59 | 27.62614 | 86.69580 | 10289 ft | 84 kts | 24° |
| 2025-12-10 15:59 | 27.63597 | 86.70032 | 10054 ft | 64 kts | 18° |
| 2025-12-10 16:00 | 27.64328 | 86.70296 | 9855 ft | 50 kts | 17° |
| 2025-12-10 16:00 | 27.64553 | 86.70374 | 9828 ft | 57 kts | 15° |
| 2025-12-10 16:01 | 27.65957 | 86.70896 | 9808 ft | 71 kts | 17° |
| 2025-12-10 16:01 | 27.66901 | 86.71248 | 9932 ft | 74 kts | 18° |
| 2025-12-10 16:02 | 27.67750 | 86.71867 | 9899 ft | 66 kts | 34° |
| 2025-12-10 16:02 | 27.68259 | 86.72321 | 9440 ft | 35 kts | 47° |
| 2025-12-10 16:03 | 27.68547 | 86.72707 | 9228 ft | 7 kts | 56° |
| 2025-12-10 16:03 | 27.68639 | 86.72874 | 9297 ft | 16 kts | 60° |
| 2025-12-10 16:04 | 27.68745 | 86.73091 | 9427 ft | 18 kts | 56° |
| 2025-12-10 16:04 | 27.68773 | 86.73162 | 9417 ft | 10 kts | 115° |
| 2025-12-10 16:05 | 27.68766 | 86.73182 | 9417 ft | 0 kts | 266° |